Check out our new PWSWeather beta!
PWSweather.com
Personal Weather Stations
Station Observations
KVAGLENALL
West Henrico, Glen Allen, VA 23060-6503

West HenricoGlen Allen, VA 23060-6503

Lat: 37.6554, Lon: -77.5693

Elevation: 273

Station Type: Davis Vantage Pro II

www.glenallenweather.com

High Low Average
Temperature 40.4°F4.7°C 35.3°F1.8°C 37.0°F2.8°C
Dew Point 36.3°F2.4°C 34.3°F1.3°C 35.1°F1.7°C
Winds 9.0 mph 14.5 kmh 1.0 mph 1.6 kmh 4.0 mph E6.4 kmh E
Wind Gusts 11.1 mph17.9 kmh 3.0 mph4.8 kmh 7.0 mph11.3 kmh
Humidity 96% 81% 93%
Pressure 30.23 in1023.7 mb 30.05 in1017.6 mb -
Precipitation 0.00 in0.0 mm - -
Hour Temp Dew Point Humidity Winds Wind Gusts Pressure Precip Precip Rate Daily Precip Total
12:00 AM 40.4°F4.7°C 35.0°F1.7°C 81% 4.0 mph ESE6.4 kmh ESE 11.1 mph17.9 kmh 30.17 in1021.7 mb 0.00 in0.0 mm 0.00 in0.0 mm 0.00 in0.0 mm
01:00 AM 39.0°F3.9°C 34.9°F1.6°C 85% 6.0 mph ESE9.7 kmh ESE 10.1 mph16.3 kmh 30.17 in1021.7 mb 0.00 in0.0 mm 0.00 in0.0 mm 0.00 in0.0 mm
01:15 AM 39.0°F3.9°C 34.9°F1.6°C 85% 3.0 mph E4.8 kmh E 6.1 mph9.8 kmh 30.18 in1022.0 mb 0.00 in0.0 mm 0.00 in0.0 mm 0.00 in0.0 mm
01:30 AM 39.1°F3.9°C 34.7°F1.5°C 84% 2.0 mph ESE3.2 kmh ESE 4.0 mph6.4 kmh 30.18 in1022.0 mb 0.00 in0.0 mm 0.00 in0.0 mm 0.00 in0.0 mm
02:30 AM 38.1°F3.4°C 35.7°F2.1°C 91% 1.0 mph E1.6 kmh E 5.1 mph8.2 kmh 30.14 in1020.7 mb 0.03 in0.8 mm 0.00 in0.0 mm 0.03 in0.8 mm
03:30 AM 37.6°F3.1°C 35.5°F1.9°C 92% 3.0 mph N4.8 kmh N 3.0 mph4.8 kmh 30.16 in1021.3 mb 0.00 in0.0 mm 0.00 in0.0 mm 0.03 in0.8 mm
04:30 AM 37.1°F2.8°C 35.3°F1.8°C 93% 2.0 mph NNE3.2 kmh NNE 4.0 mph6.4 kmh 30.18 in1022.0 mb 0.00 in0.0 mm 0.00 in0.0 mm 0.03 in0.8 mm
05:30 AM 36.8°F2.7°C 35.0°F1.7°C 93% 4.0 mph ENE6.4 kmh ENE 5.1 mph8.2 kmh 30.18 in1022.0 mb 0.00 in0.0 mm 0.00 in0.0 mm 0.03 in0.8 mm
06:30 AM 36.3°F2.4°C 34.7°F1.5°C 94% 4.0 mph NE6.4 kmh NE 5.1 mph8.2 kmh 30.18 in1022.0 mb 0.03 in0.8 mm 0.00 in0.0 mm 0.06 in1.5 mm
07:30 AM 36.1°F2.3°C 34.8°F1.6°C 95% 4.0 mph NE6.4 kmh NE 6.1 mph9.8 kmh 30.19 in1022.4 mb 0.00 in0.0 mm 0.00 in0.0 mm 0.06 in1.5 mm
08:30 AM 36.3°F2.4°C 34.7°F1.5°C 94% 2.0 mph ENE3.2 kmh ENE 4.0 mph6.4 kmh 30.22 in1023.4 mb 0.01 in0.3 mm 0.00 in0.0 mm 0.07 in1.8 mm
09:30 AM 36.3°F2.4°C 34.7°F1.5°C 94% 3.0 mph SE4.8 kmh SE 5.1 mph8.2 kmh 30.22 in1023.4 mb 0.00 in0.0 mm 0.00 in0.0 mm 0.07 in1.8 mm
10:30 AM 36.7°F2.6°C 35.4°F1.9°C 95% 4.0 mph NE6.4 kmh NE 6.1 mph9.8 kmh 30.23 in1023.7 mb 0.02 in0.5 mm 0.00 in0.0 mm 0.09 in2.3 mm
11:30 AM 37.3°F2.9°C 35.7°F2.1°C 94% 9.0 mph E14.5 kmh E 10.1 mph16.3 kmh 30.21 in1023.0 mb 0.00 in0.0 mm 0.00 in0.0 mm 0.09 in2.3 mm
12:30 PM 37.7°F3.2°C 35.9°F2.2°C 93% 4.0 mph NNE6.4 kmh NNE 10.1 mph16.3 kmh 30.21 in1023.0 mb 0.00 in0.0 mm 0.00 in0.0 mm 0.09 in2.3 mm
01:30 PM 37.8°F3.2°C 36.0°F2.2°C 93% 4.0 mph NE6.4 kmh NE 8.1 mph13.0 kmh 30.19 in1022.4 mb 0.00 in0.0 mm 0.00 in0.0 mm 0.09 in2.3 mm
02:30 PM 37.9°F3.3°C 36.3°F2.4°C 94% 5.0 mph NNE8.0 kmh NNE 5.1 mph8.2 kmh 30.17 in1021.7 mb 0.00 in0.0 mm 0.00 in0.0 mm 0.09 in2.3 mm
03:30 PM 37.1°F2.8°C 35.5°F1.9°C 94% 8.0 mph N12.9 kmh N 11.1 mph17.9 kmh 30.15 in1021.0 mb 0.00 in0.0 mm 0.00 in0.0 mm 0.09 in2.3 mm
04:30 PM 36.7°F2.6°C 35.4°F1.9°C 95% 1.0 mph N1.6 kmh N 8.1 mph13.0 kmh 30.12 in1020.0 mb 0.00 in0.0 mm 0.00 in0.0 mm 0.09 in2.3 mm
05:30 PM 36.4°F2.4°C 35.1°F1.7°C 95% 4.0 mph ENE6.4 kmh ENE 6.1 mph9.8 kmh 30.13 in1020.3 mb 0.03 in0.8 mm 0.00 in0.0 mm 0.12 in3.0 mm
06:30 PM 36.3°F2.4°C 35.3°F1.8°C 96% 3.0 mph NNW4.8 kmh NNW 4.0 mph6.4 kmh 30.12 in1020.0 mb 0.11 in2.8 mm 0.00 in0.0 mm 0.20 in5.1 mm
07:30 PM 36.0°F2.2°C 35.0°F1.7°C 96% 4.0 mph NNE6.4 kmh NNE 5.1 mph8.2 kmh 30.14 in1020.7 mb 0.22 in5.6 mm 0.00 in0.0 mm 0.31 in7.9 mm
08:30 PM 35.4°F1.9°C 34.4°F1.3°C 96% 5.0 mph NE8.0 kmh NE 9.1 mph14.6 kmh 30.12 in1020.0 mb 0.32 in8.1 mm 0.00 in0.0 mm 0.41 in10.4 mm
09:30 PM 35.3°F1.8°C 34.3°F1.3°C 96% 4.0 mph N6.4 kmh N 5.1 mph8.2 kmh 30.08 in1018.6 mb 0.19 in4.8 mm 0.00 in0.0 mm 0.41 in10.4 mm
10:30 PM 35.3°F1.8°C 34.3°F1.3°C 96% 2.0 mph NW3.2 kmh NW 5.1 mph8.2 kmh 30.08 in1018.6 mb 0.07 in1.8 mm 0.00 in0.0 mm 0.41 in10.4 mm
11:30 PM 35.3°F1.8°C 34.3°F1.3°C 96% 6.0 mph N9.7 kmh N 8.1 mph13.0 kmh 30.05 in1017.6 mb 0.02 in0.5 mm 0.00 in0.0 mm 0.41 in10.4 mm